sensor_id;sensor_type;location;lat;lon;timestamp;P1;durP1;ratioP1;P2;durP2;ratioP2
74900;SDS011;63461;51.416;6.758;2023-01-15T00:01:25;4.27;;;1.07;;
74900;SDS011;63461;51.416;6.758;2023-01-15T00:03:56;2.10;;;0.90;;
74900;SDS011;63461;51.416;6.758;2023-01-15T00:06:23;4.27;;;1.07;;
74900;SDS011;63461;51.416;6.758;2023-01-15T00:08:50;6.90;;;0.93;;
74900;SDS011;63461;51.416;6.758;2023-01-15T00:11:16;6.53;;;1.43;;
74900;SDS011;63461;51.416;6.758;2023-01-15T00:13:43;4.93;;;0.97;;
74900;SDS011;63461;51.416;6.758;2023-01-15T00:16:11;7.03;;;1.17;;
74900;SDS011;63461;51.416;6.758;2023-01-15T00:18:39;7.67;;;1.10;;
74900;SDS011;63461;51.416;6.758;2023-01-15T00:21:06;6.10;;;1.20;;
74900;SDS011;63461;51.416;6.758;2023-01-15T00:23:34;4.47;;;0.87;;
74900;SDS011;63461;51.416;6.758;2023-01-15T00:26:19;2.37;;;0.80;;
74900;SDS011;63461;51.416;6.758;2023-01-15T00:29:04;2.13;;;0.80;;
74900;SDS011;63461;51.416;6.758;2023-01-15T00:31:31;4.20;;;0.90;;
74900;SDS011;63461;51.416;6.758;2023-01-15T00:33:59;5.77;;;1.33;;
74900;SDS011;63461;51.416;6.758;2023-01-15T00:36:25;8.47;;;2.40;;
74900;SDS011;63461;51.416;6.758;2023-01-15T00:38:51;5.90;;;1.40;;
74900;SDS011;63461;51.416;6.758;2023-01-15T00:41:18;3.47;;;0.77;;
74900;SDS011;63461;51.416;6.758;2023-01-15T00:43:44;2.40;;;0.90;;
74900;SDS011;63461;51.416;6.758;2023-01-15T00:46:11;4.63;;;0.90;;
74900;SDS011;63461;51.416;6.758;2023-01-15T00:48:37;4.07;;;1.10;;
74900;SDS011;63461;51.416;6.758;2023-01-15T00:51:04;5.23;;;0.80;;
74900;SDS011;63461;51.416;6.758;2023-01-15T00:53:30;3.10;;;0.80;;
74900;SDS011;63461;51.416;6.758;2023-01-15T00:55:57;4.87;;;1.00;;
74900;SDS011;63461;51.416;6.758;2023-01-15T00:58:23;3.33;;;0.70;;
74900;SDS011;63461;51.416;6.758;2023-01-15T01:00:53;4.57;;;1.13;;
74900;SDS011;63461;51.416;6.758;2023-01-15T01:03:20;3.13;;;1.00;;
74900;SDS011;63461;51.416;6.758;2023-01-15T01:05:46;4.47;;;0.93;;
74900;SDS011;63461;51.416;6.758;2023-01-15T01:08:12;2.00;;;0.70;;
74900;SDS011;63461;51.416;6.758;2023-01-15T01:10:38;1.10;;;0.60;;
74900;SDS011;63461;51.416;6.758;2023-01-15T01:13:04;3.20;;;0.80;;
74900;SDS011;63461;51.416;6.758;2023-01-15T01:15:34;1.37;;;0.67;;
74900;SDS011;63461;51.416;6.758;2023-01-15T01:18:01;2.83;;;0.90;;
74900;SDS011;63461;51.416;6.758;2023-01-15T01:20:27;1.40;;;0.60;;
74900;SDS011;63461;51.416;6.758;2023-01-15T01:22:54;1.43;;;0.63;;
74900;SDS011;63461;51.416;6.758;2023-01-15T01:25:20;1.03;;;0.60;;
74900;SDS011;63461;51.416;6.758;2023-01-15T01:27:46;1.80;;;0.60;;
74900;SDS011;63461;51.416;6.758;2023-01-15T01:30:12;5.33;;;0.63;;
74900;SDS011;63461;51.416;6.758;2023-01-15T01:32:38;3.00;;;0.60;;
74900;SDS011;63461;51.416;6.758;2023-01-15T01:35:07;2.20;;;0.80;;
74900;SDS011;63461;51.416;6.758;2023-01-15T01:37:34;4.50;;;0.90;;
74900;SDS011;63461;51.416;6.758;2023-01-15T01:40:00;4.03;;;1.43;;
74900;SDS011;63461;51.416;6.758;2023-01-15T01:42:25;2.00;;;0.83;;
74900;SDS011;63461;51.416;6.758;2023-01-15T01:47:25;5.27;;;0.90;;
74900;SDS011;63461;51.416;6.758;2023-01-15T01:49:56;3.27;;;0.67;;
74900;SDS011;63461;51.416;6.758;2023-01-15T01:52:26;2.63;;;0.80;;
74900;SDS011;63461;51.416;6.758;2023-01-15T01:55:02;2.40;;;0.80;;
74900;SDS011;63461;51.416;6.758;2023-01-15T01:57:30;4.10;;;0.83;;
74900;SDS011;63461;51.416;6.758;2023-01-15T01:59:56;2.87;;;0.80;;
74900;SDS011;63461;51.416;6.758;2023-01-15T02:02:23;4.13;;;0.83;;
74900;SDS011;63461;51.416;6.758;2023-01-15T02:04:49;4.13;;;0.80;;
74900;SDS011;63461;51.416;6.758;2023-01-15T02:07:16;3.93;;;0.87;;
74900;SDS011;63461;51.416;6.758;2023-01-15T02:09:42;3.03;;;0.80;;
74900;SDS011;63461;51.416;6.758;2023-01-15T02:12:13;4.43;;;0.90;;
74900;SDS011;63461;51.416;6.758;2023-01-15T02:15:16;4.17;;;0.73;;
74900;SDS011;63461;51.416;6.758;2023-01-15T02:18:33;4.37;;;1.10;;
74900;SDS011;63461;51.416;6.758;2023-01-15T02:21:04;3.30;;;0.90;;
74900;SDS011;63461;51.416;6.758;2023-01-15T02:23:52;4.83;;;0.80;;
74900;SDS011;63461;51.416;6.758;2023-01-15T02:29:01;4.60;;;0.80;;
74900;SDS011;63461;51.416;6.758;2023-01-15T02:31:33;2.33;;;0.93;;
74900;SDS011;63461;51.416;6.758;2023-01-15T02:34:05;3.87;;;0.73;;
74900;SDS011;63461;51.416;6.758;2023-01-15T02:36:41;3.57;;;1.20;;
74900;SDS011;63461;51.416;6.758;2023-01-15T02:39:18;3.20;;;1.00;;
74900;SDS011;63461;51.416;6.758;2023-01-15T02:41:47;7.63;;;1.60;;
74900;SDS011;63461;51.416;6.758;2023-01-15T02:44:18;4.70;;;1.60;;
74900;SDS011;63461;51.416;6.758;2023-01-15T02:46:50;7.67;;;1.90;;
74900;SDS011;63461;51.416;6.758;2023-01-15T02:49:18;6.83;;;1.30;;
74900;SDS011;63461;51.416;6.758;2023-01-15T02:54:20;5.70;;;1.13;;
74900;SDS011;63461;51.416;6.758;2023-01-15T02:56:50;3.60;;;0.93;;
74900;SDS011;63461;51.416;6.758;2023-01-15T02:59:18;5.87;;;0.90;;
74900;SDS011;63461;51.416;6.758;2023-01-15T03:01:50;6.27;;;0.80;;
74900;SDS011;63461;51.416;6.758;2023-01-15T03:04:31;6.23;;;0.90;;
74900;SDS011;63461;51.416;6.758;2023-01-15T03:09:54;4.30;;;0.83;;
74900;SDS011;63461;51.416;6.758;2023-01-15T03:12:26;4.03;;;0.60;;
74900;SDS011;63461;51.416;6.758;2023-01-15T03:15:26;5.10;;;0.90;;
74900;SDS011;63461;51.416;6.758;2023-01-15T03:18:39;4.20;;;0.87;;
74900;SDS011;63461;51.416;6.758;2023-01-15T03:21:12;3.57;;;0.80;;
74900;SDS011;63461;51.416;6.758;2023-01-15T03:23:44;5.67;;;1.10;;
74900;SDS011;63461;51.416;6.758;2023-01-15T03:26:13;3.13;;;0.70;;
74900;SDS011;63461;51.416;6.758;2023-01-15T03:28:41;9.17;;;1.23;;
74900;SDS011;63461;51.416;6.758;2023-01-15T03:31:09;5.90;;;1.43;;
74900;SDS011;63461;51.416;6.758;2023-01-15T03:33:35;7.93;;;1.73;;
74900;SDS011;63461;51.416;6.758;2023-01-15T03:36:02;7.73;;;1.77;;
74900;SDS011;63461;51.416;6.758;2023-01-15T03:38:36;7.17;;;2.27;;
74900;SDS011;63461;51.416;6.758;2023-01-15T03:49:41;7.33;;;1.33;;
74900;SDS011;63461;51.416;6.758;2023-01-15T03:52:29;5.63;;;1.30;;
74900;SDS011;63461;51.416;6.758;2023-01-15T03:55:05;7.50;;;2.30;;
74900;SDS011;63461;51.416;6.758;2023-01-15T04:01:12;2.77;;;1.33;;
74900;SDS011;63461;51.416;6.758;2023-01-15T04:03:40;7.50;;;1.30;;
74900;SDS011;63461;51.416;6.758;2023-01-15T04:06:08;3.47;;;1.00;;
74900;SDS011;63461;51.416;6.758;2023-01-15T04:08:37;9.73;;;1.77;;
74900;SDS011;63461;51.416;6.758;2023-01-15T04:11:05;4.00;;;0.90;;
74900;SDS011;63461;51.416;6.758;2023-01-15T04:13:38;6.30;;;1.00;;
74900;SDS011;63461;51.416;6.758;2023-01-15T04:16:07;3.13;;;1.00;;
74900;SDS011;63461;51.416;6.758;2023-01-15T04:18:33;6.50;;;1.27;;
74900;SDS011;63461;51.416;6.758;2023-01-15T04:20:58;6.30;;;1.23;;
74900;SDS011;63461;51.416;6.758;2023-01-15T04:23:25;4.97;;;1.07;;
74900;SDS011;63461;51.416;6.758;2023-01-15T04:25:51;5.20;;;1.10;;
74900;SDS011;63461;51.416;6.758;2023-01-15T04:28:16;6.23;;;0.90;;
74900;SDS011;63461;51.416;6.758;2023-01-15T04:30:42;4.83;;;1.03;;
74900;SDS011;63461;51.416;6.758;2023-01-15T04:33:08;5.27;;;1.73;;
74900;SDS011;63461;51.416;6.758;2023-01-15T04:35:34;3.67;;;1.00;;
74900;SDS011;63461;51.416;6.758;2023-01-15T04:38:01;6.77;;;1.20;;
74900;SDS011;63461;51.416;6.758;2023-01-15T04:40:27;3.97;;;1.00;;
74900;SDS011;63461;51.416;6.758;2023-01-15T04:43:12;9.00;;;1.27;;
74900;SDS011;63461;51.416;6.758;2023-01-15T04:45:57;5.00;;;0.80;;
74900;SDS011;63461;51.416;6.758;2023-01-15T04:48:23;9.77;;;1.23;;
74900;SDS011;63461;51.416;6.758;2023-01-15T04:50:49;5.73;;;1.00;;
74900;SDS011;63461;51.416;6.758;2023-01-15T04:53:15;6.10;;;1.00;;
74900;SDS011;63461;51.416;6.758;2023-01-15T04:55:41;8.87;;;1.00;;
74900;SDS011;63461;51.416;6.758;2023-01-15T04:58:07;5.13;;;1.40;;
74900;SDS011;63461;51.416;6.758;2023-01-15T05:00:33;7.93;;;1.43;;
74900;SDS011;63461;51.416;6.758;2023-01-15T05:02:58;9.33;;;1.43;;
74900;SDS011;63461;51.416;6.758;2023-01-15T05:05:24;5.30;;;0.90;;
74900;SDS011;63461;51.416;6.758;2023-01-15T05:07:50;4.63;;;0.80;;
74900;SDS011;63461;51.416;6.758;2023-01-15T05:10:16;4.57;;;1.10;;
74900;SDS011;63461;51.416;6.758;2023-01-15T05:12:42;6.97;;;1.10;;
74900;SDS011;63461;51.416;6.758;2023-01-15T05:15:08;11.77;;;1.10;;
74900;SDS011;63461;51.416;6.758;2023-01-15T05:17:34;11.87;;;1.63;;
74900;SDS011;63461;51.416;6.758;2023-01-15T05:20:00;5.97;;;0.87;;
74900;SDS011;63461;51.416;6.758;2023-01-15T05:22:28;4.77;;;1.20;;
74900;SDS011;63461;51.416;6.758;2023-01-15T05:24:54;8.07;;;1.17;;
74900;SDS011;63461;51.416;6.758;2023-01-15T05:27:20;5.67;;;1.07;;
74900;SDS011;63461;51.416;6.758;2023-01-15T05:29:46;4.27;;;1.00;;
74900;SDS011;63461;51.416;6.758;2023-01-15T05:32:12;6.63;;;1.10;;
74900;SDS011;63461;51.416;6.758;2023-01-15T05:34:38;8.43;;;1.30;;
74900;SDS011;63461;51.416;6.758;2023-01-15T05:37:03;4.10;;;1.00;;
74900;SDS011;63461;51.416;6.758;2023-01-15T05:39:29;4.03;;;0.80;;
74900;SDS011;63461;51.416;6.758;2023-01-15T05:41:55;9.13;;;1.20;;
74900;SDS011;63461;51.416;6.758;2023-01-15T05:46:49;8.47;;;1.20;;
74900;SDS011;63461;51.416;6.758;2023-01-15T05:49:18;10.43;;;1.13;;
74900;SDS011;63461;51.416;6.758;2023-01-15T05:51:46;8.70;;;1.47;;
74900;SDS011;63461;51.416;6.758;2023-01-15T05:54:14;7.93;;;1.20;;
74900;SDS011;63461;51.416;6.758;2023-01-15T05:56:42;4.17;;;1.10;;
74900;SDS011;63461;51.416;6.758;2023-01-15T05:59:10;6.07;;;1.27;;
74900;SDS011;63461;51.416;6.758;2023-01-15T06:01:36;14.00;;;2.20;;
74900;SDS011;63461;51.416;6.758;2023-01-15T06:04:03;6.73;;;1.03;;
74900;SDS011;63461;51.416;6.758;2023-01-15T06:06:31;10.67;;;1.70;;
74900;SDS011;63461;51.416;6.758;2023-01-15T06:09:00;7.10;;;1.60;;
74900;SDS011;63461;51.416;6.758;2023-01-15T06:11:28;6.27;;;1.23;;
74900;SDS011;63461;51.416;6.758;2023-01-15T06:13:54;12.57;;;2.27;;
74900;SDS011;63461;51.416;6.758;2023-01-15T06:16:20;7.63;;;1.50;;
74900;SDS011;63461;51.416;6.758;2023-01-15T06:18:46;9.23;;;1.53;;
74900;SDS011;63461;51.416;6.758;2023-01-15T06:21:12;7.30;;;1.37;;
74900;SDS011;63461;51.416;6.758;2023-01-15T06:23:39;8.93;;;1.40;;
74900;SDS011;63461;51.416;6.758;2023-01-15T06:26:10;12.63;;;1.43;;
74900;SDS011;63461;51.416;6.758;2023-01-15T06:28:37;10.10;;;1.63;;
74900;SDS011;63461;51.416;6.758;2023-01-15T06:31:06;7.17;;;1.20;;
74900;SDS011;63461;51.416;6.758;2023-01-15T06:33:34;5.60;;;1.27;;
74900;SDS011;63461;51.416;6.758;2023-01-15T06:36:06;5.43;;;1.30;;
74900;SDS011;63461;51.416;6.758;2023-01-15T06:38:37;6.43;;;1.23;;
74900;SDS011;63461;51.416;6.758;2023-01-15T06:41:04;6.40;;;1.40;;
74900;SDS011;63461;51.416;6.758;2023-01-15T06:43:54;14.13;;;1.47;;
74900;SDS011;63461;51.416;6.758;2023-01-15T06:46:41;3.70;;;1.00;;
74900;SDS011;63461;51.416;6.758;2023-01-15T06:49:28;5.50;;;0.73;;
74900;SDS011;63461;51.416;6.758;2023-01-15T06:51:55;13.03;;;1.77;;
74900;SDS011;63461;51.416;6.758;2023-01-15T06:54:21;10.60;;;1.30;;
74900;SDS011;63461;51.416;6.758;2023-01-15T06:56:47;4.37;;;1.03;;
74900;SDS011;63461;51.416;6.758;2023-01-15T06:59:13;8.10;;;1.30;;
74900;SDS011;63461;51.416;6.758;2023-01-15T07:01:38;8.43;;;1.43;;
74900;SDS011;63461;51.416;6.758;2023-01-15T07:04:04;3.00;;;0.90;;
74900;SDS011;63461;51.416;6.758;2023-01-15T07:06:30;2.90;;;0.70;;
74900;SDS011;63461;51.416;6.758;2023-01-15T07:08:56;3.43;;;0.90;;
74900;SDS011;63461;51.416;6.758;2023-01-15T07:11:21;8.10;;;1.10;;
74900;SDS011;63461;51.416;6.758;2023-01-15T07:13:48;5.80;;;0.87;;
74900;SDS011;63461;51.416;6.758;2023-01-15T07:16:14;6.60;;;1.20;;
74900;SDS011;63461;51.416;6.758;2023-01-15T07:18:53;5.17;;;1.17;;
74900;SDS011;63461;51.416;6.758;2023-01-15T07:21:19;2.83;;;0.50;;
74900;SDS011;63461;51.416;6.758;2023-01-15T07:23:46;11.53;;;1.33;;
74900;SDS011;63461;51.416;6.758;2023-01-15T07:26:11;4.03;;;1.00;;
74900;SDS011;63461;51.416;6.758;2023-01-15T07:28:37;5.03;;;1.03;;
74900;SDS011;63461;51.416;6.758;2023-01-15T07:31:03;2.77;;;0.90;;
74900;SDS011;63461;51.416;6.758;2023-01-15T07:33:29;3.17;;;1.10;;
74900;SDS011;63461;51.416;6.758;2023-01-15T07:35:54;7.07;;;1.40;;
74900;SDS011;63461;51.416;6.758;2023-01-15T07:38:21;5.67;;;1.40;;
74900;SDS011;63461;51.416;6.758;2023-01-15T07:43:52;2.93;;;0.90;;
74900;SDS011;63461;51.416;6.758;2023-01-15T07:46:44;7.13;;;0.90;;
74900;SDS011;63461;51.416;6.758;2023-01-15T07:49:29;6.97;;;1.00;;
74900;SDS011;63461;51.416;6.758;2023-01-15T07:52:25;7.10;;;0.83;;
74900;SDS011;63461;51.416;6.758;2023-01-15T07:55:11;8.90;;;1.70;;
74900;SDS011;63461;51.416;6.758;2023-01-15T07:57:40;7.50;;;1.03;;
74900;SDS011;63461;51.416;6.758;2023-01-15T08:00:13;7.97;;;1.30;;
74900;SDS011;63461;51.416;6.758;2023-01-15T08:03:11;3.80;;;0.70;;
74900;SDS011;63461;51.416;6.758;2023-01-15T08:05:49;3.70;;;1.10;;
74900;SDS011;63461;51.416;6.758;2023-01-15T08:08:18;13.87;;;1.73;;
74900;SDS011;63461;51.416;6.758;2023-01-15T08:10:47;7.63;;;1.17;;
74900;SDS011;63461;51.416;6.758;2023-01-15T08:13:34;2.97;;;0.90;;
74900;SDS011;63461;51.416;6.758;2023-01-15T08:16:22;11.20;;;1.10;;
74900;SDS011;63461;51.416;6.758;2023-01-15T08:18:51;6.87;;;1.10;;
74900;SDS011;63461;51.416;6.758;2023-01-15T08:21:17;5.80;;;1.10;;
74900;SDS011;63461;51.416;6.758;2023-01-15T08:23:44;1.90;;;0.80;;
74900;SDS011;63461;51.416;6.758;2023-01-15T08:26:23;2.17;;;0.93;;
74900;SDS011;63461;51.416;6.758;2023-01-15T08:28:55;7.53;;;0.93;;
74900;SDS011;63461;51.416;6.758;2023-01-15T08:31:24;6.27;;;1.10;;
74900;SDS011;63461;51.416;6.758;2023-01-15T08:33:51;2.00;;;0.63;;
74900;SDS011;63461;51.416;6.758;2023-01-15T08:36:19;6.90;;;1.07;;
74900;SDS011;63461;51.416;6.758;2023-01-15T08:38:47;4.23;;;0.93;;
74900;SDS011;63461;51.416;6.758;2023-01-15T08:41:19;3.90;;;0.93;;
74900;SDS011;63461;51.416;6.758;2023-01-15T08:43:52;3.97;;;0.97;;
74900;SDS011;63461;51.416;6.758;2023-01-15T08:46:27;4.53;;;1.00;;
74900;SDS011;63461;51.416;6.758;2023-01-15T08:48:54;4.77;;;0.90;;
74900;SDS011;63461;51.416;6.758;2023-01-15T08:51:27;0.87;;;0.40;;
74900;SDS011;63461;51.416;6.758;2023-01-15T08:53:55;6.10;;;1.47;;
74900;SDS011;63461;51.416;6.758;2023-01-15T08:56:37;3.80;;;0.60;;
74900;SDS011;63461;51.416;6.758;2023-01-15T08:59:10;3.20;;;0.70;;
74900;SDS011;63461;51.416;6.758;2023-01-15T09:01:45;5.53;;;0.97;;
74900;SDS011;63461;51.416;6.758;2023-01-15T09:04:24;2.87;;;0.80;;
74900;SDS011;63461;51.416;6.758;2023-01-15T09:06:54;7.57;;;1.00;;
74900;SDS011;63461;51.416;6.758;2023-01-15T09:09:24;7.97;;;0.83;;
74900;SDS011;63461;51.416;6.758;2023-01-15T09:11:50;3.77;;;1.40;;
74900;SDS011;63461;51.416;6.758;2023-01-15T09:14:22;2.90;;;1.07;;
74900;SDS011;63461;51.416;6.758;2023-01-15T09:17:00;4.23;;;0.70;;
74900;SDS011;63461;51.416;6.758;2023-01-15T09:20:15;2.53;;;0.77;;
74900;SDS011;63461;51.416;6.758;2023-01-15T09:22:45;1.93;;;0.40;;
74900;SDS011;63461;51.416;6.758;2023-01-15T09:25:23;1.33;;;0.53;;
74900;SDS011;63461;51.416;6.758;2023-01-15T09:28:04;6.80;;;0.83;;
74900;SDS011;63461;51.416;6.758;2023-01-15T09:30:33;3.60;;;0.90;;
74900;SDS011;63461;51.416;6.758;2023-01-15T09:33:31;5.07;;;1.03;;
74900;SDS011;63461;51.416;6.758;2023-01-15T09:36:11;4.73;;;0.97;;
74900;SDS011;63461;51.416;6.758;2023-01-15T09:38:43;1.83;;;0.83;;
74900;SDS011;63461;51.416;6.758;2023-01-15T09:41:12;5.97;;;0.87;;
74900;SDS011;63461;51.416;6.758;2023-01-15T09:55:18;7.63;;;1.27;;
74900;SDS011;63461;51.416;6.758;2023-01-15T09:57:57;6.03;;;0.97;;
74900;SDS011;63461;51.416;6.758;2023-01-15T10:00:54;3.77;;;0.90;;
74900;SDS011;63461;51.416;6.758;2023-01-15T10:06:53;7.27;;;0.87;;
74900;SDS011;63461;51.416;6.758;2023-01-15T10:10:13;10.33;;;1.10;;
74900;SDS011;63461;51.416;6.758;2023-01-15T10:15:49;6.80;;;1.77;;
74900;SDS011;63461;51.416;6.758;2023-01-15T10:18:41;5.20;;;1.20;;
74900;SDS011;63461;51.416;6.758;2023-01-15T10:24:06;6.80;;;1.63;;
74900;SDS011;63461;51.416;6.758;2023-01-15T10:31:21;6.20;;;1.10;;
74900;SDS011;63461;51.416;6.758;2023-01-15T10:46:32;3.13;;;0.93;;
74900;SDS011;63461;51.416;6.758;2023-01-15T10:49:12;4.93;;;0.87;;
74900;SDS011;63461;51.416;6.758;2023-01-15T10:54:40;5.77;;;1.10;;
74900;SDS011;63461;51.416;6.758;2023-01-15T11:17:20;7.67;;;1.30;;
74900;SDS011;63461;51.416;6.758;2023-01-15T11:21:24;8.83;;;1.50;;
74900;SDS011;63461;51.416;6.758;2023-01-15T11:24:45;7.83;;;1.03;;
74900;SDS011;63461;51.416;6.758;2023-01-15T11:31:39;7.33;;;1.03;;
74900;SDS011;63461;51.416;6.758;2023-01-15T11:34:23;6.33;;;1.30;;
74900;SDS011;63461;51.416;6.758;2023-01-15T11:37:05;3.23;;;1.13;;
74900;SDS011;63461;51.416;6.758;2023-01-15T11:44:27;5.50;;;1.13;;
74900;SDS011;63461;51.416;6.758;2023-01-15T11:51:33;5.33;;;1.23;;
74900;SDS011;63461;51.416;6.758;2023-01-15T11:54:59;4.90;;;1.00;;
74900;SDS011;63461;51.416;6.758;2023-01-15T12:32:38;6.93;;;0.80;;
74900;SDS011;63461;51.416;6.758;2023-01-15T13:10:54;2.97;;;0.60;;
74900;SDS011;63461;51.416;6.758;2023-01-15T14:10:40;6.27;;;1.17;;
74900;SDS011;63461;51.416;6.758;2023-01-15T14:25:06;4.90;;;0.90;;
74900;SDS011;63461;51.416;6.758;2023-01-15T14:41:47;4.60;;;0.90;;
74900;SDS011;63461;51.416;6.758;2023-01-15T14:47:48;2.93;;;0.67;;
74900;SDS011;63461;51.416;6.758;2023-01-15T14:50:23;5.43;;;0.60;;
74900;SDS011;63461;51.416;6.758;2023-01-15T14:53:28;3.40;;;0.77;;
74900;SDS011;63461;51.416;6.758;2023-01-15T15:01:40;6.43;;;1.00;;
74900;SDS011;63461;51.416;6.758;2023-01-15T15:09:30;2.97;;;0.80;;
74900;SDS011;63461;51.416;6.758;2023-01-15T15:17:48;1.80;;;0.60;;
74900;SDS011;63461;51.416;6.758;2023-01-15T15:20:50;1.17;;;0.37;;
74900;SDS011;63461;51.416;6.758;2023-01-15T15:23:27;4.97;;;0.80;;
74900;SDS011;63461;51.416;6.758;2023-01-15T15:26:05;4.47;;;0.70;;
74900;SDS011;63461;51.416;6.758;2023-01-15T15:28:42;1.80;;;0.67;;
74900;SDS011;63461;51.416;6.758;2023-01-15T15:31:19;4.00;;;0.90;;
74900;SDS011;63461;51.416;6.758;2023-01-15T15:33:50;5.77;;;0.80;;
74900;SDS011;63461;51.416;6.758;2023-01-15T15:36:24;8.13;;;1.20;;
74900;SDS011;63461;51.416;6.758;2023-01-15T15:38:57;4.40;;;0.90;;
74900;SDS011;63461;51.416;6.758;2023-01-15T15:41:26;2.80;;;0.93;;
74900;SDS011;63461;51.416;6.758;2023-01-15T15:44:18;3.63;;;0.90;;
74900;SDS011;63461;51.416;6.758;2023-01-15T15:47:18;4.47;;;0.90;;
74900;SDS011;63461;51.416;6.758;2023-01-15T15:50:05;1.10;;;0.70;;
74900;SDS011;63461;51.416;6.758;2023-01-15T15:52:32;3.30;;;1.23;;
74900;SDS011;63461;51.416;6.758;2023-01-15T15:55:00;3.53;;;0.80;;
74900;SDS011;63461;51.416;6.758;2023-01-15T15:57:30;0.50;;;0.43;;
74900;SDS011;63461;51.416;6.758;2023-01-15T15:59:58;5.43;;;0.80;;
74900;SDS011;63461;51.416;6.758;2023-01-15T16:02:26;2.30;;;0.60;;
74900;SDS011;63461;51.416;6.758;2023-01-15T16:05:01;1.80;;;0.97;;
74900;SDS011;63461;51.416;6.758;2023-01-15T16:07:47;2.57;;;0.90;;
74900;SDS011;63461;51.416;6.758;2023-01-15T16:10:17;1.53;;;0.80;;
74900;SDS011;63461;51.416;6.758;2023-01-15T16:12:50;2.63;;;0.83;;
74900;SDS011;63461;51.416;6.758;2023-01-15T16:15:28;3.60;;;0.60;;
74900;SDS011;63461;51.416;6.758;2023-01-15T16:17:57;2.80;;;0.93;;
74900;SDS011;63461;51.416;6.758;2023-01-15T16:20:25;0.40;;;0.40;;
74900;SDS011;63461;51.416;6.758;2023-01-15T16:22:55;4.40;;;1.10;;
74900;SDS011;63461;51.416;6.758;2023-01-15T16:25:25;2.53;;;0.77;;
74900;SDS011;63461;51.416;6.758;2023-01-15T16:27:52;4.53;;;0.77;;
74900;SDS011;63461;51.416;6.758;2023-01-15T16:30:19;3.00;;;0.97;;
74900;SDS011;63461;51.416;6.758;2023-01-15T16:32:45;2.73;;;0.83;;
74900;SDS011;63461;51.416;6.758;2023-01-15T16:35:16;2.27;;;0.80;;
74900;SDS011;63461;51.416;6.758;2023-01-15T16:37:45;8.77;;;1.10;;
74900;SDS011;63461;51.416;6.758;2023-01-15T16:40:31;4.80;;;0.70;;
74900;SDS011;63461;51.416;6.758;2023-01-15T16:43:06;2.00;;;0.90;;
74900;SDS011;63461;51.416;6.758;2023-01-15T16:45:36;2.80;;;0.90;;
74900;SDS011;63461;51.416;6.758;2023-01-15T16:50:51;5.50;;;1.13;;
74900;SDS011;63461;51.416;6.758;2023-01-15T16:53:28;3.97;;;1.10;;
74900;SDS011;63461;51.416;6.758;2023-01-15T16:56:00;2.90;;;0.87;;
74900;SDS011;63461;51.416;6.758;2023-01-15T16:58:30;6.27;;;0.97;;
74900;SDS011;63461;51.416;6.758;2023-01-15T17:01:22;2.67;;;0.77;;
74900;SDS011;63461;51.416;6.758;2023-01-15T17:03:52;2.50;;;0.83;;
74900;SDS011;63461;51.416;6.758;2023-01-15T17:06:19;3.47;;;0.90;;
74900;SDS011;63461;51.416;6.758;2023-01-15T17:08:49;1.80;;;0.80;;
74900;SDS011;63461;51.416;6.758;2023-01-15T17:11:27;2.43;;;0.80;;
74900;SDS011;63461;51.416;6.758;2023-01-15T17:16:34;3.80;;;0.80;;
74900;SDS011;63461;51.416;6.758;2023-01-15T17:19:02;2.67;;;0.90;;
74900;SDS011;63461;51.416;6.758;2023-01-15T17:21:30;2.80;;;1.10;;
74900;SDS011;63461;51.416;6.758;2023-01-15T17:23:56;1.90;;;0.80;;
74900;SDS011;63461;51.416;6.758;2023-01-15T17:26:25;3.13;;;0.63;;
74900;SDS011;63461;51.416;6.758;2023-01-15T17:28:54;7.03;;;0.90;;
74900;SDS011;63461;51.416;6.758;2023-01-15T17:33:54;1.97;;;0.80;;
74900;SDS011;63461;51.416;6.758;2023-01-15T17:36:25;7.57;;;1.20;;
74900;SDS011;63461;51.416;6.758;2023-01-15T17:38:52;3.97;;;1.10;;
74900;SDS011;63461;51.416;6.758;2023-01-15T17:41:18;2.73;;;0.90;;
74900;SDS011;63461;51.416;6.758;2023-01-15T17:43:45;4.13;;;1.43;;
74900;SDS011;63461;51.416;6.758;2023-01-15T17:46:12;2.07;;;0.83;;
74900;SDS011;63461;51.416;6.758;2023-01-15T17:48:38;5.27;;;1.23;;
74900;SDS011;63461;51.416;6.758;2023-01-15T17:51:05;18.80;;;5.33;;
74900;SDS011;63461;51.416;6.758;2023-01-15T17:53:35;14.57;;;4.63;;
74900;SDS011;63461;51.416;6.758;2023-01-15T17:56:01;11.33;;;4.07;;
74900;SDS011;63461;51.416;6.758;2023-01-15T17:58:46;19.50;;;6.23;;
74900;SDS011;63461;51.416;6.758;2023-01-15T18:01:36;21.90;;;5.07;;
74900;SDS011;63461;51.416;6.758;2023-01-15T18:04:40;5.43;;;2.23;;
74900;SDS011;63461;51.416;6.758;2023-01-15T18:07:30;9.53;;;3.37;;
74900;SDS011;63461;51.416;6.758;2023-01-15T18:10:01;18.87;;;4.33;;
74900;SDS011;63461;51.416;6.758;2023-01-15T18:12:28;10.87;;;3.03;;
74900;SDS011;63461;51.416;6.758;2023-01-15T18:14:55;5.90;;;2.03;;
74900;SDS011;63461;51.416;6.758;2023-01-15T18:17:20;9.03;;;3.10;;
74900;SDS011;63461;51.416;6.758;2023-01-15T18:19:46;21.23;;;6.63;;
74900;SDS011;63461;51.416;6.758;2023-01-15T18:22:12;19.40;;;6.13;;
74900;SDS011;63461;51.416;6.758;2023-01-15T18:24:38;4.70;;;1.40;;
74900;SDS011;63461;51.416;6.758;2023-01-15T18:27:04;1.03;;;0.73;;
74900;SDS011;63461;51.416;6.758;2023-01-15T18:29:30;3.47;;;0.93;;
74900;SDS011;63461;51.416;6.758;2023-01-15T18:31:56;1.53;;;0.57;;
74900;SDS011;63461;51.416;6.758;2023-01-15T18:34:21;2.37;;;0.60;;
74900;SDS011;63461;51.416;6.758;2023-01-15T18:36:47;2.37;;;0.60;;
74900;SDS011;63461;51.416;6.758;2023-01-15T18:39:13;3.90;;;0.50;;
74900;SDS011;63461;51.416;6.758;2023-01-15T18:41:39;1.50;;;0.73;;
74900;SDS011;63461;51.416;6.758;2023-01-15T18:46:54;1.20;;;0.70;;
74900;SDS011;63461;51.416;6.758;2023-01-15T18:49:24;2.03;;;0.70;;
74900;SDS011;63461;51.416;6.758;2023-01-15T18:51:50;0.60;;;0.60;;
74900;SDS011;63461;51.416;6.758;2023-01-15T18:54:35;7.10;;;0.90;;
74900;SDS011;63461;51.416;6.758;2023-01-15T18:57:02;3.30;;;0.80;;
74900;SDS011;63461;51.416;6.758;2023-01-15T18:59:28;2.40;;;0.50;;
74900;SDS011;63461;51.416;6.758;2023-01-15T19:01:54;6.57;;;1.00;;
74900;SDS011;63461;51.416;6.758;2023-01-15T19:04:20;5.00;;;1.00;;
74900;SDS011;63461;51.416;6.758;2023-01-15T19:06:46;2.57;;;1.13;;
74900;SDS011;63461;51.416;6.758;2023-01-15T19:09:13;5.40;;;0.90;;
74900;SDS011;63461;51.416;6.758;2023-01-15T19:11:41;7.10;;;1.60;;
74900;SDS011;63461;51.416;6.758;2023-01-15T19:14:08;4.97;;;1.07;;
74900;SDS011;63461;51.416;6.758;2023-01-15T19:16:53;4.40;;;1.07;;
74900;SDS011;63461;51.416;6.758;2023-01-15T19:19:37;3.00;;;1.00;;
74900;SDS011;63461;51.416;6.758;2023-01-15T19:22:03;4.23;;;0.77;;
74900;SDS011;63461;51.416;6.758;2023-01-15T19:24:47;3.40;;;0.97;;
74900;SDS011;63461;51.416;6.758;2023-01-15T19:27:13;3.37;;;1.27;;
74900;SDS011;63461;51.416;6.758;2023-01-15T19:29:40;7.50;;;1.33;;
74900;SDS011;63461;51.416;6.758;2023-01-15T19:32:06;3.87;;;1.37;;
74900;SDS011;63461;51.416;6.758;2023-01-15T19:34:33;11.13;;;2.13;;
74900;SDS011;63461;51.416;6.758;2023-01-15T19:36:58;9.77;;;2.60;;
74900;SDS011;63461;51.416;6.758;2023-01-15T19:39:25;11.20;;;2.67;;
74900;SDS011;63461;51.416;6.758;2023-01-15T19:41:51;8.87;;;1.77;;
74900;SDS011;63461;51.416;6.758;2023-01-15T19:44:36;4.97;;;1.23;;
74900;SDS011;63461;51.416;6.758;2023-01-15T19:47:22;6.00;;;1.47;;
74900;SDS011;63461;51.416;6.758;2023-01-15T19:50:14;4.90;;;1.10;;
74900;SDS011;63461;51.416;6.758;2023-01-15T19:52:43;4.67;;;1.40;;
74900;SDS011;63461;51.416;6.758;2023-01-15T19:55:13;4.90;;;1.37;;
74900;SDS011;63461;51.416;6.758;2023-01-15T19:57:40;5.77;;;1.50;;
74900;SDS011;63461;51.416;6.758;2023-01-15T20:00:14;6.07;;;1.30;;
74900;SDS011;63461;51.416;6.758;2023-01-15T20:02:43;6.43;;;1.50;;
74900;SDS011;63461;51.416;6.758;2023-01-15T20:05:11;3.40;;;1.30;;